Time;durP1;ratioP1;P1;durP2;ratioP2;P2;SDS_P1;SDS_P2;PMS_P1;PMS_P2;Temp;Humidity;BMP_temperature;BMP_pressure;BME280_temperature;BME280_humidity;BME280_pressure;Samples;Min_cycle;Max_cycle;Signal;HPM_P1;HPM_P2
2021/04/04 00:00:19;;;;;;;7.60;4.35;;;1.00;61.90;;;;;;5123154;28;20121;-71
2021/04/04 00:02:56;;;;;;;6.35;4.45;;;1.00;61.40;;;;;;5128025;28;20129;-71
2021/04/04 00:05:27;;;;;;;7.72;4.80;;;1.00;61.70;;;;;;5124010;28;20047;-71
2021/04/04 00:07:58;;;;;;;6.72;4.60;;;0.90;61.90;;;;;;5155218;28;20047;-71
2021/04/04 00:10:30;;;;;;;7.57;4.57;;;0.90;62.00;;;;;;5122629;28;20101;-71
2021/04/04 00:13:02;;;;;;;7.35;4.30;;;0.90;61.30;;;;;;5122032;28;20074;-71
2021/04/04 00:15:34;;;;;;;7.90;3.88;;;0.90;61.80;;;;;;5127396;28;20035;-71
2021/04/04 00:18:06;;;;;;;6.85;4.15;;;0.80;62.00;;;;;;5126196;28;20137;-71
2021/04/04 00:20:37;;;;;;;9.68;4.85;;;0.80;61.80;;;;;;5153762;28;20134;-71
2021/04/04 00:23:08;;;;;;;9.93;4.32;;;0.80;62.00;;;;;;5126956;28;20050;-71
2021/04/04 00:25:40;;;;;;;8.35;4.60;;;0.80;62.30;;;;;;5139606;28;20126;-70
2021/04/04 00:28:12;;;;;;;6.18;3.95;;;0.90;61.70;;;;;;5128329;28;20135;-71
2021/04/04 00:30:44;;;;;;;8.68;4.40;;;0.90;62.00;;;;;;5123637;28;20122;-71
2021/04/04 00:33:15;;;;;;;7.40;4.55;;;0.80;62.00;;;;;;5126154;28;20054;-71
2021/04/04 00:35:47;;;;;;;7.57;4.60;;;0.80;61.60;;;;;;5125534;28;20480;-72
2021/04/04 00:38:19;;;;;;;7.20;4.18;;;0.80;62.00;;;;;;5127632;28;20058;-71
2021/04/04 00:40:51;;;;;;;7.55;4.35;;;0.80;62.30;;;;;;5126665;28;20129;-71
2021/04/04 00:43:22;;;;;;;7.82;4.18;;;0.70;62.10;;;;;;5156209;28;20509;-71
2021/04/04 00:45:54;;;;;;;8.63;4.63;;;0.50;62.80;;;;;;5125350;28;20636;-70
2021/04/04 00:48:26;;;;;;;7.55;4.30;;;0.50;63.20;;;;;;5126358;28;20051;-70
2021/04/04 00:50:57;;;;;;;9.80;4.78;;;0.50;63.40;;;;;;5122785;28;20110;-70
2021/04/04 00:53:29;;;;;;;7.55;4.75;;;0.60;63.10;;;;;;5127022;28;20221;-70
2021/04/04 00:56:01;;;;;;;8.13;4.65;;;0.60;62.30;;;;;;5154948;28;20046;-71
2021/04/04 00:58:32;;;;;;;9.23;5.45;;;0.70;61.80;;;;;;5148980;28;20047;-70
2021/04/04 01:01:05;;;;;;;7.80;5.07;;;0.80;61.70;;;;;;5124977;28;20150;-69
2021/04/04 01:03:36;;;;;;;8.63;5.40;;;0.80;61.80;;;;;;5122930;28;20051;-69
2021/04/04 01:06:09;;;;;;;8.32;5.05;;;0.80;61.20;;;;;;5125073;28;20692;-70
2021/04/04 01:08:40;;;;;;;8.73;4.80;;;0.80;61.30;;;;;;5152950;28;20051;-71
2021/04/04 01:11:18;;;;;;;10.90;5.28;;;0.70;61.70;;;;;;5121885;28;20232;-70
2021/04/04 01:14:01;;;;;;;8.15;4.65;;;0.60;62.00;;;;;;5125516;28;20051;-69
2021/04/04 01:16:46;;;;;;;6.20;3.97;;;0.60;61.50;;;;;;5122692;28;20508;-71
2021/04/04 01:20:14;;;;;;;7.55;4.57;;;0.60;61.20;;;;;;5125685;28;20401;-72
2021/04/04 01:22:57;;;;;;;7.75;4.47;;;0.60;62.10;;;;;;5080536;29;20157;-71
2021/04/04 01:25:38;;;;;;;7.05;4.35;;;0.60;62.00;;;;;;5119442;28;20447;-70
2021/04/04 01:28:20;;;;;;;7.35;4.38;;;0.50;62.70;;;;;;5122854;28;20070;-71
2021/04/04 01:30:52;;;;;;;6.85;4.40;;;0.40;62.90;;;;;;5129554;28;20059;-70
2021/04/04 01:33:25;;;;;;;8.52;4.18;;;0.40;62.60;;;;;;5124149;28;20055;-71
2021/04/04 01:35:59;;;;;;;6.88;4.35;;;0.30;63.40;;;;;;5120680;28;20071;-70
2021/04/04 01:38:33;;;;;;;8.65;4.47;;;0.20;63.50;;;;;;5120571;28;20133;-71
2021/04/04 01:41:30;;;;;;;7.57;4.35;;;0.10;64.10;;;;;;5151345;28;20054;-70
2021/04/04 01:44:06;;;;;;;7.40;4.40;;;0.10;64.90;;;;;;5124342;28;20476;-72
2021/04/04 01:46:39;;;;;;;7.25;3.78;;;0.20;64.00;;;;;;5122624;28;20129;-71
2021/04/04 01:49:11;;;;;;;7.28;4.28;;;0.30;62.90;;;;;;5120865;28;20050;-71
2021/04/04 01:51:44;;;;;;;6.65;4.40;;;0.30;63.10;;;;;;5151232;28;20059;-71
2021/04/04 01:54:18;;;;;;;8.30;4.25;;;0.30;62.50;;;;;;5124459;28;20137;-70
2021/04/04 01:56:50;;;;;;;7.53;4.00;;;0.30;63.10;;;;;;5122514;28;20071;-71
2021/04/04 01:59:23;;;;;;;6.65;4.10;;;0.30;63.20;;;;;;5122876;28;20094;-71
2021/04/04 02:01:56;;;;;;;7.10;4.57;;;0.30;63.30;;;;;;5121347;28;20494;-71
2021/04/04 02:04:28;;;;;;;7.97;4.55;;;0.40;63.10;;;;;;5124139;28;20569;-71
2021/04/04 02:06:59;;;;;;;7.18;4.88;;;0.30;63.10;;;;;;5122149;28;20083;-71
2021/04/04 02:09:33;;;;;;;9.25;4.95;;;0.30;62.50;;;;;;5124733;28;20043;-72
2021/04/04 02:12:06;;;;;;;6.25;3.83;;;0.30;62.40;;;;;;5122837;28;20079;-72
2021/04/04 02:14:41;;;;;;;8.30;4.70;;;0.30;62.40;;;;;;5123429;28;20036;-71
2021/04/04 02:17:13;;;;;;;8.30;4.70;;;0.30;61.90;;;;;;5122479;28;20055;-71
2021/04/04 02:19:45;;;;;;;15.52;5.78;;;0.30;62.30;;;;;;5123498;28;20704;-71
2021/04/04 02:22:17;;;;;;;8.50;4.60;;;0.30;62.20;;;;;;5123610;28;20051;-71
2021/04/04 02:24:49;;;;;;;10.05;4.20;;;0.30;62.30;;;;;;5117334;28;20186;-70
2021/04/04 02:27:21;;;;;;;7.20;4.68;;;0.20;63.40;;;;;;5122219;28;20134;-70
2021/04/04 02:29:52;;;;;;;7.38;4.35;;;0.30;62.80;;;;;;5125998;28;20105;-70
2021/04/04 02:32:26;;;;;;;7.15;4.45;;;0.20;62.10;;;;;;5122287;28;20062;-70
2021/04/04 02:35:01;;;;;;;8.52;4.93;;;0.20;62.80;;;;;;5126783;28;20444;-71
2021/04/04 02:37:37;;;;;;;8.68;4.50;;;0.20;63.10;;;;;;5124565;28;20054;-71
2021/04/04 02:40:11;;;;;;;6.35;3.75;;;0.20;62.40;;;;;;5117818;28;20044;-70
2021/04/04 02:42:45;;;;;;;7.40;4.72;;;0.20;62.30;;;;;;5128784;28;20248;-70
2021/04/04 02:45:18;;;;;;;8.80;5.30;;;0.20;62.60;;;;;;5124231;28;20733;-71
2021/04/04 02:47:56;;;;;;;8.13;4.95;;;0.20;63.20;;;;;;5127089;28;20687;-72
2021/04/04 02:50:28;;;;;;;6.78;4.38;;;0.10;63.50;;;;;;5123044;28;20063;-72
2021/04/04 02:53:02;;;;;;;8.40;4.57;;;0.10;63.50;;;;;;5126466;28;20564;-73
2021/04/04 02:55:37;;;;;;;10.18;5.20;;;0.10;63.40;;;;;;5126600;28;20046;-72
2021/04/04 02:58:10;;;;;;;8.43;4.93;;;0.00;63.30;;;;;;5129933;28;20067;-72
2021/04/04 03:00:42;;;;;;;8.10;4.97;;;0.00;63.20;;;;;;5122309;28;20078;-71
2021/04/04 03:03:21;;;;;;;8.38;4.43;;;0.00;63.20;;;;;;5147501;28;20051;-71
2021/04/04 03:05:56;;;;;;;7.97;4.72;;;0.00;63.80;;;;;;5116333;28;20126;-71
2021/04/04 03:08:28;;;;;;;10.20;5.30;;;-0.10;64.20;;;;;;5128256;28;20483;-70
2021/04/04 03:11:02;;;;;;;7.28;4.63;;;-0.20;65.00;;;;;;5124271;28;20165;-71
2021/04/04 03:13:34;;;;;;;7.55;4.50;;;-0.20;63.80;;;;;;5128926;28;20142;-70
2021/04/04 03:16:06;;;;;;;8.77;4.78;;;-0.20;63.50;;;;;;5129097;28;20909;-71
2021/04/04 03:18:41;;;;;;;10.45;5.10;;;-0.10;63.90;;;;;;5128569;28;20097;-71
2021/04/04 03:21:14;;;;;;;10.65;4.82;;;-0.10;62.90;;;;;;5128410;28;20078;-73
2021/04/04 03:23:47;;;;;;;7.30;4.32;;;-0.10;63.40;;;;;;5128953;28;20101;-72
2021/04/04 03:26:19;;;;;;;9.35;5.15;;;-0.10;63.30;;;;;;5124439;28;20047;-72
2021/04/04 03:28:52;;;;;;;7.88;5.18;;;-0.10;63.30;;;;;;5125311;28;20110;-72
2021/04/04 03:31:24;;;;;;;7.53;4.35;;;-0.10;62.90;;;;;;5127143;28;20078;-71
2021/04/04 03:33:59;;;;;;;8.43;4.70;;;-0.10;62.70;;;;;;5128564;28;20050;-70
2021/04/04 03:36:31;;;;;;;8.85;4.60;;;-0.10;63.00;;;;;;5126446;28;20054;-71
2021/04/04 03:39:03;;;;;;;7.45;4.60;;;-0.10;62.70;;;;;;5129132;28;20039;-71
2021/04/04 03:41:39;;;;;;;8.73;5.53;;;-0.20;63.20;;;;;;5127002;28;20149;-69
2021/04/04 03:44:12;;;;;;;8.52;4.80;;;-0.20;63.90;;;;;;5129808;28;20468;-68
2021/04/04 03:46:45;;;;;;;7.55;4.30;;;-0.20;63.20;;;;;;5156739;28;20106;-69
2021/04/04 03:49:19;;;;;;;8.05;4.97;;;-0.20;63.10;;;;;;5131885;28;20516;-71
2021/04/04 03:51:58;;;;;;;7.55;4.78;;;-0.20;63.10;;;;;;5129945;28;20043;-70
2021/04/04 03:54:30;;;;;;;7.10;4.72;;;-0.20;63.50;;;;;;5129691;28;20109;-69
2021/04/04 03:57:04;;;;;;;10.40;5.05;;;-0.20;63.60;;;;;;5126966;28;20176;-70
2021/04/04 03:59:39;;;;;;;7.55;4.72;;;-0.20;63.30;;;;;;5125065;28;20054;-70
2021/04/04 04:02:11;;;;;;;9.55;5.43;;;-0.30;65.10;;;;;;5128340;28;20125;-70
2021/04/04 04:04:44;;;;;;;8.63;5.22;;;-0.30;64.50;;;;;;5127279;28;20050;-69
2021/04/04 04:07:20;;;;;;;8.90;5.25;;;-0.40;64.90;;;;;;5142909;28;20457;-69
2021/04/04 04:09:52;;;;;;;8.73;5.38;;;-0.40;65.00;;;;;;5157534;28;20090;-69
2021/04/04 04:12:25;;;;;;;9.23;5.07;;;-0.40;64.10;;;;;;5124255;28;20051;-70
2021/04/04 04:14:58;;;;;;;7.82;4.78;;;-0.40;63.80;;;;;;5126291;28;20098;-69
2021/04/04 04:17:32;;;;;;;9.40;4.78;;;-0.40;64.10;;;;;;5127373;28;20105;-69
2021/04/04 04:20:04;;;;;;;7.68;4.85;;;-0.50;65.00;;;;;;5126137;28;20146;-70
2021/04/04 04:22:38;;;;;;;6.63;4.03;;;-0.50;64.60;;;;;;5122896;28;20133;-70
2021/04/04 04:25:11;;;;;;;9.60;4.95;;;-0.50;65.50;;;;;;5128369;28;20721;-71
2021/04/04 04:27:43;;;;;;;7.75;4.85;;;-0.40;64.00;;;;;;5123857;28;20038;-71
2021/04/04 04:30:15;;;;;;;7.35;4.53;;;-0.40;64.20;;;;;;5155881;28;20059;-71
2021/04/04 04:32:50;;;;;;;7.68;4.78;;;-0.40;64.70;;;;;;5125716;28;20121;-71
2021/04/04 04:35:24;;;;;;;9.02;4.90;;;-0.50;65.40;;;;;;5123709;28;20066;-71
2021/04/04 04:37:56;;;;;;;9.00;4.53;;;-0.50;65.30;;;;;;5159073;28;20093;-70
2021/04/04 04:40:28;;;;;;;9.05;4.55;;;-0.50;65.00;;;;;;5122331;28;20083;-70
2021/04/04 04:43:00;;;;;;;10.95;5.63;;;-0.50;64.40;;;;;;5127808;28;20089;-70
2021/04/04 04:45:35;;;;;;;8.38;5.03;;;-0.50;64.70;;;;;;5124997;28;20043;-71
2021/04/04 04:48:08;;;;;;;9.27;4.72;;;-0.50;65.70;;;;;;5105848;28;20067;-70
2021/04/04 04:50:42;;;;;;;9.25;4.72;;;-0.60;66.20;;;;;;5121027;28;20051;-70
2021/04/04 04:53:13;;;;;;;9.40;3.85;;;-0.60;66.00;;;;;;5125910;28;20043;-68
2021/04/04 04:55:49;;;;;;;7.93;3.95;;;-0.60;65.90;;;;;;5125279;28;20047;-68
2021/04/04 04:58:21;;;;;;;7.38;3.47;;;-0.60;65.60;;;;;;5123620;28;20058;-70
2021/04/04 05:01:00;;;;;;;7.28;4.10;;;-0.60;65.60;;;;;;5124984;28;20137;-69
2021/04/04 05:03:32;;;;;;;7.27;2.93;;;-0.60;65.70;;;;;;5126195;28;20046;-71
2021/04/04 05:06:09;;;;;;;7.53;3.78;;;-0.60;64.60;;;;;;5142385;28;20082;-71
2021/04/04 05:08:43;;;;;;;7.80;4.00;;;-0.50;64.80;;;;;;5151160;28;20042;-69
2021/04/04 05:11:27;;;;;;;8.13;4.50;;;-0.50;64.60;;;;;;5125118;28;20458;-77
2021/04/04 05:13:59;;;;;;;7.80;4.35;;;-0.50;64.20;;;;;;5229398;23;20046;-71
2021/04/04 05:16:31;;;;;;;9.30;4.75;;;-0.50;64.50;;;;;;5175712;28;20577;-71
2021/04/04 05:19:09;;;;;;;9.60;4.40;;;-0.50;64.10;;;;;;5176629;28;20049;-71
2021/04/04 05:21:45;;;;;;;7.53;3.75;;;-0.50;64.70;;;;;;5174776;28;20054;-71
2021/04/04 05:24:16;;;;;;;9.27;4.07;;;-0.50;64.40;;;;;;5191011;28;20100;-72
2021/04/04 05:26:48;;;;;;;8.30;4.03;;;-0.50;64.20;;;;;;5174216;28;20065;-70
2021/04/04 05:29:19;;;;;;;8.07;3.90;;;-0.60;64.40;;;;;;5176232;28;20570;-71
2021/04/04 05:31:53;;;;;;;10.80;6.00;;;-0.60;65.10;;;;;;5175709;28;20050;-71
2021/04/04 05:34:27;;;;;;;12.93;5.40;;;-0.50;65.40;;;;;;5175940;28;20116;-71
2021/04/04 05:37:04;;;;;;;9.40;5.25;;;-0.40;65.20;;;;;;5176075;28;20507;-71
2021/04/04 05:39:37;;;;;;;13.27;6.88;;;-0.40;65.60;;;;;;5175760;28;20504;-71
2021/04/04 05:42:11;;;;;;;15.23;8.23;;;-0.30;66.40;;;;;;5174642;28;20085;-71
2021/04/04 05:45:03;;;;;;;12.57;6.75;;;-0.10;65.30;;;;;;5176097;28;20054;-71
2021/04/04 05:47:44;;;;;;;11.18;5.13;;;0.00;64.80;;;;;;5175634;28;20647;-72
2021/04/04 05:50:22;;;;;;;11.30;5.53;;;0.20;64.70;;;;;;5174897;28;20559;-72
2021/04/04 05:53:15;;;;;;;9.35;5.05;;;0.30;64.70;;;;;;5175351;28;20088;-69
2021/04/04 05:55:56;;;;;;;9.30;5.10;;;0.50;64.50;;;;;;5174481;28;20046;-71
2021/04/04 05:58:39;;;;;;;8.85;4.63;;;0.70;63.90;;;;;;5175704;28;20042;-71
2021/04/04 06:01:15;;;;;;;9.77;4.82;;;0.90;63.70;;;;;;5172116;28;20133;-69
2021/04/04 06:04:01;;;;;;;9.65;4.63;;;0.90;63.80;;;;;;5173641;28;20112;-70
2021/04/04 06:07:00;;;;;;;7.95;4.70;;;1.10;63.20;;;;;;5174534;28;20112;-71
2021/04/04 06:09:57;;;;;;;7.55;3.75;;;1.20;62.90;;;;;;5171567;28;20050;-71
2021/04/04 06:12:48;;;;;;;8.07;4.53;;;1.40;62.60;;;;;;5160235;28;20046;-69
2021/04/04 06:15:25;;;;;;;7.80;4.50;;;1.50;63.20;;;;;;5149435;28;20761;-70
2021/04/04 06:18:14;;;;;;;8.93;4.68;;;1.60;61.80;;;;;;5147277;28;20086;-71
2021/04/04 06:21:02;;;;;;;9.77;5.15;;;1.70;61.90;;;;;;5144612;28;20050;-70
2021/04/04 06:24:05;;;;;;;8.63;4.68;;;1.90;61.50;;;;;;5155291;28;20566;-70
2021/04/04 06:26:55;;;;;;;11.73;5.00;;;2.10;60.90;;;;;;5164720;28;20065;-70
2021/04/04 06:29:35;;;;;;;10.77;4.43;;;2.20;60.60;;;;;;5178570;28;20577;-70
2021/04/04 06:32:16;;;;;;;8.15;4.50;;;2.30;60.50;;;;;;5178602;28;20595;-70
2021/04/04 06:34:53;;;;;;;9.68;3.95;;;2.40;60.40;;;;;;5179638;28;20100;-69
2021/04/04 06:37:56;;;;;;;8.23;4.70;;;2.50;59.50;;;;;;5177377;28;20038;-70
2021/04/04 06:41:09;;;;;;;9.52;5.05;;;2.70;59.30;;;;;;5177791;28;20054;-70
2021/04/04 06:43:53;;;;;;;7.30;3.90;;;2.90;59.20;;;;;;5177847;28;20133;-70
2021/04/04 06:46:42;;;;;;;8.52;4.20;;;3.10;58.80;;;;;;5177756;28;20053;-69
2021/04/04 06:49:35;;;;;;;7.72;4.53;;;3.20;57.60;;;;;;5175975;28;20073;-70
2021/04/04 06:52:37;;;;;;;8.65;4.68;;;3.40;56.90;;;;;;5176988;28;20046;-70
2021/04/04 06:55:24;;;;;;;8.30;4.18;;;3.50;56.70;;;;;;5166579;28;20135;-70
2021/04/04 06:58:18;;;;;;;8.15;4.03;;;3.40;57.10;;;;;;5176668;28;20069;-69
2021/04/04 07:01:08;;;;;;;9.13;4.10;;;3.60;55.20;;;;;;5175607;28;20045;-71
2021/04/04 07:03:49;;;;;;;7.85;4.35;;;3.60;57.00;;;;;;5176320;28;20100;-68
2021/04/04 07:06:26;;;;;;;;;;;3.80;55.80;;;;;;5177260;28;20134;-68
2021/04/04 07:09:35;;;;;;;7.90;4.15;;;4.00;55.60;;;;;;5176491;28;19964;-69
2021/04/04 07:12:30;;;;;;;6.93;3.90;;;4.20;54.50;;;;;;5176329;28;20443;-70
2021/04/04 07:15:17;;;;;;;7.22;4.25;;;4.30;52.70;;;;;;5158312;28;20066;-71
2021/04/04 07:18:14;;;;;;;8.50;4.20;;;4.50;53.30;;;;;;5155176;28;20073;-69
2021/04/04 07:21:32;;;;;;;7.65;3.63;;;4.60;52.30;;;;;;5156180;28;20078;-70
2021/04/04 07:24:28;;;;;;;7.43;3.50;;;4.70;51.50;;;;;;5157056;28;20066;-70
2021/04/04 07:27:21;;;;;;;6.63;3.80;;;5.00;51.70;;;;;;5169595;28;20069;-70
2021/04/04 07:30:31;;;;;;;9.40;4.63;;;5.20;50.70;;;;;;5173009;28;20042;-70
2021/04/04 07:33:19;;;;;;;7.65;3.83;;;5.30;50.10;;;;;;5173995;28;20117;-72
2021/04/04 07:36:02;;;;;;;8.10;4.13;;;5.50;50.40;;;;;;5167376;28;20054;-70
2021/04/04 07:38:49;;;;;;;8.10;4.32;;;5.50;49.50;;;;;;5156414;28;20042;-72
2021/04/04 07:41:42;;;;;;;8.77;3.33;;;5.70;49.80;;;;;;5154739;28;20573;-73
2021/04/04 07:44:47;;;;;;;7.72;4.32;;;5.90;47.90;;;;;;5155670;28;20042;-71
2021/04/04 07:47:27;;;;;;;7.22;3.80;;;6.10;47.40;;;;;;5169020;28;20400;-72
2021/04/04 07:50:08;;;;;;;7.57;3.88;;;6.20;45.90;;;;;;5154553;28;20097;-70
2021/04/04 07:52:43;;;;;;;7.45;4.40;;;6.20;46.50;;;;;;5159495;28;20101;-70
2021/04/04 07:55:21;;;;;;;7.40;4.25;;;6.40;46.20;;;;;;5158008;28;20805;-67
2021/04/04 07:58:12;;;;;;;7.40;4.22;;;6.50;44.80;;;;;;5175496;28;20510;-67
2021/04/04 08:00:50;;;;;;;7.05;4.00;;;6.60;45.40;;;;;;5174584;28;20605;-67
2021/04/04 08:03:37;;;;;;;8.02;3.83;;;6.80;45.60;;;;;;5175853;28;20960;-68
2021/04/04 08:06:12;;;;;;;6.72;3.63;;;6.90;45.30;;;;;;5166839;28;20035;-67
2021/04/04 08:09:01;;;;;;;6.93;3.90;;;7.00;44.40;;;;;;5145985;28;20050;-67
2021/04/04 08:12:11;;;;;;;8.82;3.85;;;7.10;41.60;;;;;;5167761;28;20062;-69
2021/04/04 08:15:05;;;;;;;7.20;3.80;;;7.30;42.30;;;;;;5112411;29;20262;-67
2021/04/04 08:17:36;;;;;;;9.55;4.05;;;7.50;42.60;;;;;;5143922;28;21016;-68
2021/04/04 08:20:31;;;;;;;9.13;4.00;;;7.60;39.20;;;;;;5152465;28;20701;-68
2021/04/04 08:23:05;;;;;;;7.40;3.33;;;7.80;41.00;;;;;;5143552;28;20161;-68
2021/04/04 08:26:00;;;;;;;10.60;3.92;;;7.90;40.30;;;;;;5144811;28;20049;-67
2021/04/04 08:28:42;;;;;;;6.35;3.50;;;8.10;41.10;;;;;;5170069;28;20499;-68
2021/04/04 08:31:41;;;;;;;7.13;3.67;;;8.30;39.70;;;;;;5153666;28;20046;-68
2021/04/04 08:38:13;;;;;;;7.05;4.13;;;8.50;40.70;;;;;;5175012;28;20070;-68
2021/04/04 08:40:45;;;;;;;8.10;3.70;;;8.70;39.10;;;;;;5171411;28;20046;-67
2021/04/04 08:43:18;;;;;;;7.57;4.13;;;8.70;39.10;;;;;;5151771;28;20595;-68
2021/04/04 08:46:06;;;;;;;7.75;3.90;;;8.80;39.20;;;;;;5155996;28;20062;-68
2021/04/04 08:48:39;;;;;;;6.47;3.53;;;8.90;39.60;;;;;;5155798;28;20042;-68
2021/04/04 08:51:14;;;;;;;6.45;3.45;;;8.90;37.80;;;;;;5160980;28;20129;-68
2021/04/04 08:53:49;;;;;;;6.38;3.10;;;9.00;38.40;;;;;;5174994;28;20037;-67
2021/04/04 08:56:22;;;;;;;8.00;3.92;;;9.00;37.50;;;;;;5176014;28;20100;-68
2021/04/04 08:58:57;;;;;;;6.20;3.58;;;9.10;38.70;;;;;;5176021;28;20049;-67
2021/04/04 09:01:31;;;;;;;7.18;3.50;;;9.20;37.90;;;;;;5175067;28;20042;-67
2021/04/04 09:04:06;;;;;;;6.78;3.95;;;9.30;37.60;;;;;;5172629;28;20120;-68
2021/04/04 09:06:42;;;;;;;7.25;3.55;;;9.10;37.50;;;;;;5174919;28;20125;-68
2021/04/04 09:09:22;;;;;;;6.45;3.90;;;9.10;38.20;;;;;;5174997;28;20096;-67
2021/04/04 09:11:58;;;;;;;7.97;4.22;;;8.80;37.40;;;;;;5172246;28;20159;-68
2021/04/04 09:14:38;;;;;;;9.65;7.55;;;8.80;39.00;;;;;;5170212;28;20053;-68
2021/04/04 09:17:16;;;;;;;8.63;7.72;;;9.10;37.50;;;;;;5172337;28;20066;-68
2021/04/04 09:19:47;;;;;;;8.55;7.65;;;8.90;36.50;;;;;;5174685;28;20045;-69
2021/04/04 09:22:21;;;;;;;8.48;7.60;;;8.90;36.80;;;;;;5173174;28;20096;-68
2021/04/04 09:24:58;;;;;;;9.00;8.10;;;8.90;37.10;;;;;;5163996;28;20042;-69
2021/04/04 09:27:36;;;;;;;9.02;8.10;;;9.10;38.90;;;;;;5174111;28;20033;-68
2021/04/04 09:30:22;;;;;;;9.25;8.35;;;9.30;37.30;;;;;;5172463;28;20049;-66
2021/04/04 09:33:01;;;;;;;9.05;8.15;;;9.40;35.70;;;;;;5172448;28;20046;-66
2021/04/04 09:35:33;;;;;;;7.22;4.00;;;9.40;36.80;;;;;;5172819;28;20123;-67
2021/04/04 09:38:10;;;;;;;6.35;3.20;;;9.50;37.10;;;;;;5171078;28;20151;-68
2021/04/04 09:40:44;;;;;;;6.28;3.72;;;9.70;35.50;;;;;;5171676;28;20046;-66
2021/04/04 09:43:16;;;;;;;6.28;3.40;;;9.80;35.70;;;;;;5173773;28;20092;-67
2021/04/04 09:45:48;;;;;;;6.63;3.63;;;9.90;35.20;;;;;;5172786;28;20070;-67
2021/04/04 09:48:24;;;;;;;4.95;2.55;;;10.00;35.30;;;;;;5171298;28;20121;-68
2021/04/04 09:51:12;;;;;;;5.03;3.10;;;10.00;33.10;;;;;;5171278;28;20356;-66
2021/04/04 09:53:46;;;;;;;5.20;2.53;;;10.20;32.70;;;;;;5173347;28;20048;-66
2021/04/04 09:56:27;;;;;;;6.25;3.30;;;10.30;32.60;;;;;;5173782;28;20081;-68
2021/04/04 09:58:59;;;;;;;6.57;3.25;;;10.40;31.40;;;;;;5178384;28;20038;-67
2021/04/04 10:01:32;;;;;;;6.43;2.88;;;10.40;30.20;;;;;;5172591;28;20041;-67
2021/04/04 10:04:07;;;;;;;6.85;3.22;;;10.40;31.80;;;;;;5176242;28;20096;-69
2021/04/04 10:06:58;;;;;;;6.72;3.25;;;10.50;30.10;;;;;;5177092;28;20512;-67
2021/04/04 10:09:38;;;;;;;5.68;3.20;;;10.50;30.00;;;;;;5175858;28;20042;-67
2021/04/04 10:12:10;;;;;;;5.35;2.83;;;10.60;29.80;;;;;;5176688;28;20149;-67
2021/04/04 10:15:08;;;;;;;7.20;3.17;;;10.70;29.10;;;;;;5156380;28;633336;-67
2021/04/04 10:17:53;;;;;;;6.95;3.03;;;10.70;29.90;;;;;;5156375;28;20418;-68
2021/04/04 10:20:53;;;;;;;5.75;2.90;;;10.80;29.40;;;;;;5156768;28;20071;-67
2021/04/04 10:23:30;;;;;;;5.45;3.22;;;11.00;29.60;;;;;;5148657;28;20042;-68
2021/04/04 10:26:09;;;;;;;5.88;2.88;;;11.00;28.80;;;;;;5149525;28;20050;-68
2021/04/04 10:28:49;;;;;;;5.47;3.03;;;10.90;29.10;;;;;;5146659;28;20035;-67
2021/04/04 10:31:23;;;;;;;5.22;2.90;;;10.90;29.40;;;;;;5172468;28;20511;-67
2021/04/04 10:33:59;;;;;;;6.78;3.17;;;11.10;29.80;;;;;;5177515;28;20109;-68
2021/04/04 10:36:31;;;;;;;6.15;3.08;;;11.10;29.60;;;;;;5165919;28;20046;-69
2021/04/04 10:39:03;;;;;;;6.45;3.35;;;11.20;28.20;;;;;;5157017;28;20050;-68
2021/04/04 10:41:36;;;;;;;6.60;3.33;;;11.20;29.20;;;;;;5168463;28;22013;-70
2021/04/04 10:44:21;;;;;;;6.03;2.72;;;11.30;28.70;;;;;;5175927;28;20408;-66
2021/04/04 10:46:52;;;;;;;5.32;2.53;;;11.20;27.60;;;;;;5177801;28;20128;-67
2021/04/04 10:49:24;;;;;;;5.50;3.30;;;11.20;27.70;;;;;;5176874;28;20041;-67
2021/04/04 10:51:56;;;;;;;5.68;2.90;;;11.20;27.90;;;;;;5175674;28;20590;-67
2021/04/04 10:54:27;;;;;;;6.00;2.70;;;11.20;27.80;;;;;;5178043;28;20046;-67
2021/04/04 10:56:59;;;;;;;4.68;2.70;;;11.00;28.00;;;;;;5177274;28;20657;-68
2021/04/04 10:59:32;;;;;;;6.22;3.30;;;11.00;28.00;;;;;;5178643;28;20061;-67
2021/04/04 11:02:03;;;;;;;6.38;2.90;;;11.20;27.80;;;;;;5177219;28;20042;-68
2021/04/04 11:04:35;;;;;;;5.28;3.13;;;11.40;28.90;;;;;;5177540;28;20092;-69
2021/04/04 11:07:08;;;;;;;5.90;3.38;;;11.60;28.80;;;;;;5178417;28;20172;-68
2021/04/04 11:09:39;;;;;;;5.47;2.78;;;11.70;27.50;;;;;;5178088;28;20029;-67
2021/04/04 11:12:11;;;;;;;4.60;2.85;;;11.60;28.80;;;;;;5155305;28;20439;-68
2021/04/04 11:14:48;;;;;;;5.70;3.42;;;11.70;28.00;;;;;;5155009;28;20061;-68
2021/04/04 11:17:23;;;;;;;5.65;2.95;;;11.90;27.60;;;;;;5172748;28;20535;-67
2021/04/04 11:19:56;;;;;;;7.18;3.05;;;11.80;27.20;;;;;;5168541;28;20077;-68
2021/04/04 11:22:28;;;;;;;7.30;3.17;;;11.80;26.40;;;;;;5140672;28;20034;-68
2021/04/04 11:25:02;;;;;;;4.88;3.03;;;11.80;26.80;;;;;;5154682;28;20053;-68
2021/04/04 11:27:45;;;;;;;5.03;3.08;;;11.90;27.50;;;;;;5156111;28;20815;-70
2021/04/04 11:30:38;;;;;;;5.97;3.10;;;12.00;27.30;;;;;;5154513;28;20054;-67
2021/04/04 11:33:15;;;;;;;6.10;3.30;;;12.10;27.60;;;;;;5156052;28;20064;-67
2021/04/04 11:36:09;;;;;;;6.35;3.55;;;12.20;26.50;;;;;;5161759;28;20678;-69
2021/04/04 11:38:50;;;;;;;7.95;3.50;;;11.90;27.80;;;;;;5177910;28;20052;-68
2021/04/04 11:41:27;;;;;;;5.45;2.95;;;12.10;26.30;;;;;;5176753;28;20038;-68
2021/04/04 11:44:24;;;;;;;5.95;3.45;;;12.20;26.50;;;;;;5165913;28;20077;-67
2021/04/04 11:46:58;;;;;;;7.55;3.70;;;12.50;27.20;;;;;;5177415;28;20065;-67
2021/04/04 11:49:47;;;;;;;5.32;3.42;;;12.60;26.50;;;;;;5177791;28;20034;-68
2021/04/04 11:52:18;;;;;;;6.18;3.53;;;12.90;27.10;;;;;;5162862;28;20046;-69
2021/04/04 11:54:55;;;;;;;6.15;3.55;;;13.10;26.20;;;;;;5162514;28;20054;-68
2021/04/04 11:57:33;;;;;;;6.45;3.50;;;13.20;25.30;;;;;;5156096;28;20051;-68
2021/04/04 12:00:08;;;;;;;6.13;3.35;;;13.10;25.80;;;;;;5157646;28;20055;-68
2021/04/04 12:02:47;;;;;;;5.93;3.25;;;13.10;26.10;;;;;;5157101;28;20667;-68
2021/04/04 12:05:21;;;;;;;5.35;3.35;;;13.30;26.20;;;;;;5158226;28;20125;-67
2021/04/04 12:07:55;;;;;;;5.47;3.70;;;13.20;25.40;;;;;;5174785;28;20093;-68
2021/04/04 12:10:32;;;;;;;6.22;3.58;;;13.20;26.40;;;;;;5173296;28;20053;-68
2021/04/04 12:13:12;;;;;;;5.45;3.47;;;13.40;25.80;;;;;;5157326;28;20076;-69
2021/04/04 12:15:44;;;;;;;7.05;2.97;;;13.40;25.00;;;;;;5161819;28;20411;-68
2021/04/04 12:18:15;;;;;;;7.03;3.60;;;13.50;25.70;;;;;;5174683;28;20281;-67
2021/04/04 12:20:46;;;;;;;5.15;3.20;;;13.60;25.20;;;;;;5176444;28;20057;-68
2021/04/04 12:23:18;;;;;;;6.82;3.65;;;13.70;25.90;;;;;;5176906;28;20132;-68
2021/04/04 12:25:49;;;;;;;8.18;3.72;;;13.80;25.30;;;;;;5168035;28;20142;-68
2021/04/04 12:28:21;;;;;;;7.75;4.35;;;14.00;24.70;;;;;;5144208;28;20579;-68
2021/04/04 12:30:57;;;;;;;5.63;3.40;;;13.80;25.20;;;;;;5147527;28;20039;-68
2021/04/04 12:33:37;;;;;;;6.93;3.70;;;14.00;25.80;;;;;;5151528;28;20129;-67
2021/04/04 12:36:09;;;;;;;5.97;3.55;;;14.10;25.40;;;;;;5146899;28;20049;-67
2021/04/04 12:38:40;;;;;;;7.10;3.10;;;14.20;25.00;;;;;;5155688;28;20432;-68
2021/04/04 12:41:11;;;;;;;5.75;3.70;;;14.30;25.10;;;;;;5155533;28;20053;-68
2021/04/04 12:43:43;;;;;;;6.00;3.80;;;14.30;25.60;;;;;;5156286;28;20046;-68
2021/04/04 12:46:14;;;;;;;5.57;3.10;;;14.30;24.30;;;;;;5155759;28;20410;-68
2021/04/04 12:48:46;;;;;;;5.82;3.00;;;14.30;24.80;;;;;;5155557;28;20042;-68
2021/04/04 12:51:17;;;;;;;6.40;3.33;;;14.30;24.90;;;;;;5164988;28;20042;-67
2021/04/04 12:53:51;;;;;;;6.07;3.13;;;14.20;25.00;;;;;;5175310;28;20447;-68
2021/04/04 12:56:36;;;;;;;6.25;3.38;;;14.30;25.40;;;;;;5190648;28;20120;-67
2021/04/04 12:59:14;;;;;;;6.28;3.40;;;14.40;25.20;;;;;;5176385;28;20049;-69
2021/04/04 13:01:46;;;;;;;6.38;3.42;;;14.40;25.40;;;;;;5182897;28;20104;-67
2021/04/04 13:04:20;;;;;;;5.90;3.40;;;14.50;25.30;;;;;;5173322;28;20137;-67
2021/04/04 13:06:59;;;;;;;6.03;3.72;;;14.50;24.50;;;;;;5190222;28;20467;-70
2021/04/04 13:09:31;;;;;;;6.70;3.72;;;14.50;25.80;;;;;;5175312;28;20119;-66
2021/04/04 13:12:03;;;;;;;5.95;3.90;;;14.50;25.00;;;;;;5172890;28;20080;-68
2021/04/04 13:14:36;;;;;;;6.00;3.50;;;14.60;24.60;;;;;;5174311;28;20108;-68
2021/04/04 13:17:07;;;;;;;6.38;3.70;;;14.50;24.90;;;;;;5173141;28;20132;-66
2021/04/04 13:19:40;;;;;;;7.38;4.13;;;14.60;24.40;;;;;;5174453;28;20471;-67
2021/04/04 13:22:15;;;;;;;6.45;4.25;;;14.70;24.90;;;;;;5158419;28;20085;-69
2021/04/04 13:24:46;;;;;;;5.93;3.88;;;14.70;24.80;;;;;;5156381;28;20093;-67
2021/04/04 13:27:19;;;;;;;6.20;3.78;;;14.80;23.80;;;;;;5172018;28;20164;-67
2021/04/04 13:29:51;;;;;;;6.90;3.65;;;14.80;23.90;;;;;;5175166;28;20546;-68
2021/04/04 13:32:22;;;;;;;7.22;3.75;;;14.80;24.30;;;;;;5172942;28;20041;-66
2021/04/04 13:34:54;;;;;;;7.88;3.83;;;14.80;24.60;;;;;;5175096;28;20495;-67
2021/04/04 13:37:26;;;;;;;7.15;3.53;;;14.80;23.10;;;;;;5176105;28;20135;-66
2021/04/04 13:39:57;;;;;;;6.28;3.83;;;14.70;24.10;;;;;;5176181;28;20049;-66
2021/04/04 13:42:29;;;;;;;7.10;3.53;;;14.70;24.80;;;;;;5175338;28;20137;-67
2021/04/04 13:45:02;;;;;;;6.88;4.20;;;14.80;24.80;;;;;;5177191;28;20056;-68
2021/04/04 13:47:33;;;;;;;5.90;3.85;;;14.90;24.80;;;;;;5172578;28;20069;-68